createdAt,value
2024-01-25T00:01:53.880Z,6.60
2024-01-25T00:04:24.251Z,6.60
2024-01-25T00:06:56.317Z,6.60
2024-01-25T00:09:26.637Z,6.60
2024-01-25T00:11:57.143Z,6.30
2024-01-25T00:14:27.255Z,6.30
2024-01-25T00:16:57.847Z,6.30
2024-01-25T00:19:28.144Z,6.00
2024-01-25T00:22:00.191Z,6.20
2024-01-25T00:24:30.330Z,6.10
2024-01-25T00:27:00.785Z,6.20
2024-01-25T00:29:32.668Z,6.10
2024-01-25T00:32:03.002Z,6.10
2024-01-25T00:34:34.228Z,6.20
2024-01-25T00:37:07.430Z,6.20
2024-01-25T00:39:38.500Z,6.30
2024-01-25T00:42:10.387Z,6.50
2024-01-25T00:44:41.072Z,6.60
2024-01-25T00:47:12.882Z,6.40
2024-01-25T00:49:43.900Z,6.50
2024-01-25T00:52:17.355Z,6.50
2024-01-25T00:54:48.246Z,6.40
2024-01-25T00:57:19.606Z,6.50
2024-01-25T00:59:50.650Z,6.60
2024-01-25T01:02:24.276Z,6.50
2024-01-25T01:04:55.265Z,6.60
2024-01-25T01:07:28.383Z,6.50
2024-01-25T01:09:58.636Z,6.60
2024-01-25T01:12:29.236Z,6.60
2024-01-25T01:14:59.170Z,6.70
2024-01-25T01:17:29.493Z,6.70
2024-01-25T01:19:59.782Z,6.60
2024-01-25T01:22:31.635Z,6.60
2024-01-25T01:25:01.737Z,6.80
2024-01-25T01:27:32.315Z,6.60
2024-01-25T01:30:02.777Z,6.70
2024-01-25T01:32:33.325Z,6.80
2024-01-25T01:35:04.003Z,6.60
2024-01-25T01:37:36.334Z,6.70
2024-01-25T01:40:08.225Z,6.70
2024-01-25T01:42:38.853Z,6.60
2024-01-25T01:45:13.600Z,6.60
2024-01-25T01:47:44.462Z,6.60
2024-01-25T01:50:15.274Z,6.70
2024-01-25T01:52:49.186Z,6.80
2024-01-25T01:55:20.265Z,6.80
2024-01-25T01:57:50.969Z,6.80
2024-01-25T02:00:22.717Z,6.70
2024-01-25T02:02:53.445Z,6.70
2024-01-25T02:05:23.557Z,6.80
2024-01-25T02:07:55.555Z,6.70
2024-01-25T02:10:26.044Z,6.90
2024-01-25T02:12:56.525Z,6.90
2024-01-25T02:15:26.673Z,7.00
2024-01-25T02:17:57.473Z,7.10
2024-01-25T02:20:28.154Z,7.00
2024-01-25T02:23:00.030Z,7.10
2024-01-25T02:25:30.103Z,7.00
2024-01-25T02:28:00.998Z,7.00
2024-01-25T02:30:31.140Z,7.00
2024-01-25T02:33:01.632Z,7.00
2024-01-25T02:35:31.794Z,6.90
2024-01-25T02:38:03.706Z,6.80
2024-01-25T02:40:33.861Z,6.80
2024-01-25T02:43:04.300Z,6.70
2024-01-25T02:45:34.726Z,6.60
2024-01-25T02:48:05.835Z,6.70
2024-01-25T02:50:35.908Z,6.80
2024-01-25T02:53:08.113Z,6.80
2024-01-25T02:55:38.141Z,6.90
2024-01-25T02:58:08.613Z,7.00
2024-01-25T03:00:38.694Z,6.80
2024-01-25T03:03:09.227Z,6.70
2024-01-25T03:05:39.430Z,6.60
2024-01-25T03:08:11.299Z,6.70
2024-01-25T03:10:41.600Z,6.70
2024-01-25T03:13:12.188Z,6.70
2024-01-25T03:15:42.411Z,6.80
2024-01-25T03:18:13.049Z,6.60
2024-01-25T03:20:43.264Z,6.50
2024-01-25T03:23:15.202Z,6.80
2024-01-25T03:25:45.312Z,6.80
2024-01-25T03:28:17.810Z,6.60
2024-01-25T03:30:48.168Z,6.90
2024-01-25T03:33:18.749Z,6.70
2024-01-25T03:35:48.881Z,6.70
2024-01-25T03:38:20.737Z,6.70
2024-01-25T03:40:52.199Z,7.00
2024-01-25T03:43:25.031Z,6.90
2024-01-25T03:45:57.362Z,7.10
2024-01-25T03:48:27.985Z,7.00
2024-01-25T03:50:58.241Z,6.80
2024-01-25T03:53:30.136Z,7.00
2024-01-25T03:56:00.378Z,6.90
2024-01-25T03:58:31.386Z,6.70
2024-01-25T04:01:01.688Z,6.90
2024-01-25T04:03:32.328Z,6.70
2024-01-25T04:06:03.239Z,6.70
2024-01-25T04:08:35.219Z,6.80
2024-01-25T04:11:06.278Z,6.70
2024-01-25T04:13:36.735Z,6.60
2024-01-25T04:16:08.148Z,6.80
2024-01-25T04:18:39.962Z,6.70
2024-01-25T04:21:10.832Z,6.70
2024-01-25T04:23:42.712Z,6.70
2024-01-25T04:26:13.006Z,6.70
2024-01-25T04:28:44.005Z,6.50
2024-01-25T04:31:14.408Z,6.20
2024-01-25T04:33:47.266Z,6.20
2024-01-25T04:36:20.560Z,6.10
2024-01-25T04:38:52.910Z,6.10
2024-01-25T04:41:23.521Z,5.70
2024-01-25T04:43:54.111Z,5.80
2024-01-25T04:46:24.649Z,5.70
2024-01-25T04:48:55.486Z,5.80
2024-01-25T04:51:26.039Z,5.90
2024-01-25T04:53:58.112Z,6.00
2024-01-25T04:56:28.118Z,5.90
2024-01-25T04:59:00.512Z,5.70
2024-01-25T05:01:30.816Z,6.00
2024-01-25T05:04:02.237Z,6.00
2024-01-25T05:06:33.627Z,6.10
2024-01-25T05:09:06.212Z,6.10
2024-01-25T05:11:36.336Z,6.20
2024-01-25T05:14:06.773Z,6.10
2024-01-25T05:16:37.580Z,6.10
2024-01-25T05:19:08.307Z,6.10
2024-01-25T05:21:38.454Z,6.30
2024-01-25T05:24:11.499Z,6.20
2024-01-25T05:26:41.925Z,6.30
2024-01-25T05:29:12.413Z,6.40
2024-01-25T05:31:42.897Z,6.50
2024-01-25T05:34:13.806Z,6.50
2024-01-25T05:36:43.974Z,6.50
2024-01-25T05:39:18.285Z,6.50
2024-01-25T05:41:48.463Z,6.50
2024-01-25T05:44:19.029Z,6.50
2024-01-25T05:46:49.691Z,6.60
2024-01-25T05:49:20.378Z,6.60
2024-01-25T05:51:50.667Z,6.50
2024-01-25T05:54:24.691Z,6.60
2024-01-25T05:56:56.664Z,6.70
2024-01-25T05:59:27.266Z,6.60
2024-01-25T06:01:58.568Z,6.50
2024-01-25T06:04:29.225Z,6.50
2024-01-25T06:07:00.175Z,6.60
2024-01-25T06:09:34.028Z,6.70
2024-01-25T06:12:05.075Z,6.70
2024-01-25T06:14:35.993Z,6.70
2024-01-25T06:17:07.076Z,6.70
2024-01-25T06:19:38.827Z,6.70
2024-01-25T06:22:13.768Z,6.70
2024-01-25T06:24:45.983Z,6.70
2024-01-25T06:27:16.738Z,6.80
2024-01-25T06:29:47.732Z,6.80
2024-01-25T06:32:26.134Z,6.60
2024-01-25T06:34:58.058Z,6.40
2024-01-25T06:37:28.633Z,6.60
2024-01-25T06:40:01.307Z,6.50
2024-01-25T06:42:31.950Z,6.50
2024-01-25T06:45:02.498Z,6.40
2024-01-25T06:47:34.272Z,6.60
2024-01-25T06:50:05.461Z,6.70
2024-01-25T06:52:36.619Z,6.80
2024-01-25T06:55:09.657Z,6.80
2024-01-25T06:57:41.904Z,6.70
2024-01-25T07:00:16.932Z,6.80
2024-01-25T07:02:47.486Z,6.80
2024-01-25T07:05:19.784Z,6.70
2024-01-25T07:07:50.600Z,6.80
2024-01-25T07:10:23.276Z,6.70
2024-01-25T07:12:55.265Z,6.80
2024-01-25T07:15:25.957Z,6.80
2024-01-25T07:17:56.563Z,6.70
2024-01-25T07:20:27.485Z,6.70
2024-01-25T07:22:58.468Z,6.80
2024-01-25T07:25:30.959Z,6.70
2024-01-25T07:28:01.381Z,6.70
2024-01-25T07:30:32.585Z,6.70
2024-01-25T07:33:04.685Z,6.80
2024-01-25T07:35:36.702Z,6.90
2024-01-25T07:38:12.662Z,6.90
2024-01-25T07:40:45.322Z,6.90
2024-01-25T07:43:16.206Z,6.90
2024-01-25T07:45:50.834Z,6.80
2024-01-25T07:48:22.221Z,6.90
2024-01-25T07:50:53.797Z,6.80
2024-01-25T07:53:24.377Z,6.80
2024-01-25T07:55:56.208Z,6.80
2024-01-25T07:58:27.338Z,6.90
2024-01-25T08:00:58.046Z,6.80
2024-01-25T08:03:28.419Z,6.90
2024-01-25T08:05:59.437Z,6.90
2024-01-25T08:08:29.826Z,7.00
2024-01-25T08:11:01.965Z,6.90
2024-01-25T08:13:35.617Z,6.80
2024-01-25T08:16:11.828Z,6.90
2024-01-25T08:18:41.991Z,6.90
2024-01-25T08:21:14.767Z,6.80
2024-01-25T08:23:45.040Z,6.90
2024-01-25T08:26:24.009Z,6.80
2024-01-25T08:28:56.055Z,6.80
2024-01-25T08:31:30.833Z,7.00
2024-01-25T08:34:04.364Z,6.90
2024-01-25T08:36:35.652Z,6.90
2024-01-25T08:39:08.258Z,7.00
2024-01-25T08:41:42.118Z,7.00
2024-01-25T08:44:13.984Z,6.90
2024-01-25T08:46:45.224Z,6.80
2024-01-25T08:49:16.563Z,6.90
2024-01-25T08:51:48.082Z,7.00
2024-01-25T08:54:20.977Z,6.90
2024-01-25T08:56:53.481Z,6.90
2024-01-25T08:59:23.587Z,6.90
2024-01-25T09:05:11.419Z,6.90
2024-01-25T09:07:42.029Z,6.90
2024-01-25T09:10:13.379Z,7.00
2024-01-25T09:12:45.342Z,7.00
2024-01-25T09:15:16.062Z,7.10
2024-01-25T09:17:47.266Z,7.00
2024-01-25T09:20:19.303Z,7.10
2024-01-25T09:22:50.302Z,7.10
2024-01-25T09:25:21.930Z,7.10
2024-01-25T09:27:58.430Z,7.10
2024-01-25T09:30:31.019Z,7.30
2024-01-25T09:33:01.664Z,7.20
2024-01-25T09:35:35.406Z,7.20
2024-01-25T09:38:07.106Z,7.30
2024-01-25T09:40:38.673Z,7.40
2024-01-25T09:43:13.653Z,7.40
2024-01-25T09:45:47.564Z,7.30
2024-01-25T09:48:19.089Z,7.30
2024-01-25T09:50:50.443Z,7.40
2024-01-25T09:53:27.682Z,7.50
2024-01-25T09:56:11.078Z,7.50
2024-01-25T09:58:47.275Z,7.40
2024-01-25T10:01:18.451Z,7.50
2024-01-25T10:03:49.057Z,7.40
2024-01-25T10:06:21.765Z,7.30
2024-01-25T10:08:52.621Z,7.30
2024-01-25T10:11:28.393Z,7.30
2024-01-25T10:14:04.687Z,7.30
2024-01-25T10:16:36.581Z,7.30
2024-01-25T10:19:10.508Z,7.30
2024-01-25T10:21:45.136Z,7.20
2024-01-25T10:24:16.438Z,7.20
2024-01-25T10:26:47.399Z,7.20
2024-01-25T10:29:21.806Z,7.20
2024-01-25T10:31:54.054Z,7.20
2024-01-25T10:34:28.068Z,7.20
2024-01-25T10:37:00.530Z,7.10
2024-01-25T10:39:35.501Z,7.20
2024-01-25T10:42:06.586Z,7.20
2024-01-25T10:44:38.528Z,7.00
2024-01-25T10:47:15.266Z,7.00
2024-01-25T10:49:50.854Z,7.10
2024-01-25T10:52:22.418Z,7.10
2024-01-25T10:54:54.250Z,7.10
2024-01-25T10:57:25.437Z,7.20
2024-01-25T10:59:58.637Z,7.20
2024-01-25T11:02:30.567Z,7.20
2024-01-25T11:05:02.950Z,7.20
2024-01-25T11:07:47.745Z,7.30
2024-01-25T11:10:22.044Z,7.30
2024-01-25T11:12:54.374Z,7.30
2024-01-25T11:15:33.440Z,7.40
2024-01-25T11:18:07.886Z,7.40
2024-01-25T11:20:39.329Z,7.30
2024-01-25T11:23:10.719Z,7.40
2024-01-25T11:25:42.679Z,7.40
2024-01-25T11:28:13.754Z,7.40
2024-01-25T11:30:46.090Z,7.40
2024-01-25T11:33:16.652Z,7.40
2024-01-25T11:35:57.617Z,7.40
2024-01-25T11:38:28.377Z,7.40
2024-01-25T11:41:01.361Z,7.40
2024-01-25T11:43:32.112Z,7.40
2024-01-25T11:46:05.024Z,7.40
2024-01-25T11:48:36.159Z,7.40
2024-01-25T11:51:07.384Z,7.40
2024-01-25T11:53:37.662Z,7.40
2024-01-25T11:56:12.429Z,7.40
2024-01-25T11:58:45.715Z,7.30
2024-01-25T12:01:20.413Z,7.40
2024-01-25T12:03:52.429Z,7.40
2024-01-25T12:06:24.232Z,7.40
2024-01-25T12:08:54.858Z,7.40
2024-01-25T12:11:25.665Z,7.40
2024-01-25T12:13:55.873Z,7.30
2024-01-25T12:16:27.838Z,7.40
2024-01-25T12:18:58.395Z,7.40
2024-01-25T12:21:29.536Z,7.30
2024-01-25T12:24:01.965Z,7.50
2024-01-25T12:26:37.766Z,7.30
2024-01-25T12:29:09.385Z,7.40
2024-01-25T12:31:45.681Z,7.60
2024-01-25T12:34:19.999Z,7.60
2024-01-25T12:36:54.448Z,7.60
2024-01-25T12:39:27.003Z,7.60
2024-01-25T12:41:58.062Z,7.70
2024-01-25T12:44:31.510Z,7.70
2024-01-25T12:47:07.929Z,7.70
2024-01-25T12:49:39.245Z,7.70
2024-01-25T12:52:11.086Z,7.80
2024-01-25T12:54:45.068Z,7.70
2024-01-25T12:57:17.872Z,7.60
2024-01-25T12:59:48.611Z,7.60
2024-01-25T13:02:21.029Z,7.60
2024-01-25T13:04:53.160Z,7.60
2024-01-25T13:07:25.054Z,7.50
2024-01-25T13:09:55.914Z,7.60
2024-01-25T13:12:26.418Z,7.50
2024-01-25T13:14:57.226Z,7.50
2024-01-25T13:17:29.719Z,7.60
2024-01-25T13:20:01.069Z,7.50
2024-01-25T13:22:34.391Z,7.60
2024-01-25T13:25:07.561Z,7.60
2024-01-25T13:27:38.387Z,7.50
2024-01-25T13:30:13.187Z,7.50
2024-01-25T13:32:46.442Z,7.40
2024-01-25T13:35:17.024Z,7.50
2024-01-25T13:37:49.166Z,7.50
2024-01-25T13:40:21.517Z,7.40
2024-01-25T13:42:52.816Z,7.40
2024-01-25T13:45:24.320Z,7.40
2024-01-25T13:47:59.764Z,7.30
2024-01-25T13:50:32.707Z,7.30
2024-01-25T13:53:04.034Z,7.30
2024-01-25T13:55:34.755Z,7.30
2024-01-25T13:58:06.983Z,7.30
2024-01-25T14:00:37.391Z,7.30
2024-01-25T14:03:12.124Z,7.30
2024-01-25T14:05:43.024Z,7.40
2024-01-25T14:08:14.518Z,7.30
2024-01-25T14:10:45.778Z,7.30
2024-01-25T14:13:17.116Z,7.30
2024-01-25T14:15:49.424Z,7.10
2024-01-25T14:18:22.893Z,7.20
2024-01-25T14:20:54.334Z,7.20
2024-01-25T14:23:24.949Z,7.20
2024-01-25T14:25:55.800Z,7.20
2024-01-25T14:28:27.703Z,7.10
2024-01-25T14:30:58.933Z,7.20
2024-01-25T14:33:31.124Z,7.10
2024-01-25T14:36:02.453Z,7.10
2024-01-25T14:38:36.036Z,7.10
2024-01-25T14:41:10.696Z,7.10
2024-01-25T14:43:44.487Z,7.10
2024-01-25T14:46:19.260Z,7.00
2024-01-25T14:48:53.294Z,6.80
2024-01-25T14:51:24.369Z,6.90
2024-01-25T14:53:56.010Z,6.90
2024-01-25T14:56:26.664Z,7.10
2024-01-25T14:58:57.516Z,7.00
2024-01-25T15:01:30.319Z,6.90
2024-01-25T15:04:02.649Z,6.90
2024-01-25T15:06:33.120Z,6.80
2024-01-25T15:09:04.141Z,6.90
2024-01-25T15:11:35.599Z,6.90
2024-01-25T15:14:06.425Z,6.70
2024-01-25T15:16:40.221Z,6.80
2024-01-25T15:19:12.556Z,6.90
2024-01-25T15:21:43.373Z,6.70
2024-01-25T15:24:14.279Z,6.70
2024-01-25T15:26:47.450Z,6.70
2024-01-25T15:29:19.771Z,6.60
2024-01-25T15:31:51.181Z,6.40
2024-01-25T15:34:23.718Z,6.70
2024-01-25T15:36:54.111Z,6.60
2024-01-25T15:39:25.523Z,6.80
2024-01-25T15:41:56.065Z,6.60
2024-01-25T15:44:27.932Z,6.60
2024-01-25T15:46:58.725Z,6.60
2024-01-25T15:49:30.677Z,6.60
2024-01-25T15:52:00.802Z,6.60
2024-01-25T15:54:31.678Z,6.50
2024-01-25T15:57:01.930Z,6.50
2024-01-25T15:59:32.339Z,6.50
2024-01-25T16:02:02.455Z,6.50
2024-01-25T16:04:34.952Z,6.60
2024-01-25T16:07:08.814Z,6.70
2024-01-25T16:09:39.544Z,6.70
2024-01-25T16:12:11.777Z,6.50
2024-01-25T16:14:42.391Z,6.60
2024-01-25T16:17:15.632Z,6.60
2024-01-25T16:19:48.821Z,6.60
2024-01-25T16:22:19.084Z,6.60
2024-01-25T16:24:50.058Z,6.40
2024-01-25T16:27:20.302Z,6.40
2024-01-25T16:29:50.741Z,6.60
2024-01-25T16:32:20.907Z,6.60
2024-01-25T16:34:52.923Z,6.50
2024-01-25T16:37:23.168Z,6.50
2024-01-25T16:39:53.816Z,6.60
2024-01-25T16:42:24.069Z,6.50
2024-01-25T16:44:54.845Z,6.60
2024-01-25T16:47:24.915Z,6.50
2024-01-25T16:49:57.461Z,6.40
2024-01-25T16:52:28.944Z,6.50
2024-01-25T16:55:00.780Z,6.50
2024-01-25T16:57:32.756Z,6.40
2024-01-25T17:00:04.096Z,6.40
2024-01-25T17:02:34.888Z,6.40
2024-01-25T17:05:07.354Z,6.50
2024-01-25T17:07:37.705Z,6.40
2024-01-25T17:10:11.136Z,6.60
2024-01-25T17:12:41.402Z,6.60
2024-01-25T17:15:14.743Z,6.50
2024-01-25T17:17:45.366Z,6.50
2024-01-25T17:20:19.135Z,6.60
2024-01-25T17:22:49.635Z,6.50
2024-01-25T17:25:20.932Z,6.50
2024-01-25T17:27:54.056Z,6.50
2024-01-25T17:30:26.635Z,6.70
2024-01-25T17:32:59.026Z,6.60
2024-01-25T17:35:32.141Z,6.60
2024-01-25T17:38:04.453Z,6.50
2024-01-25T17:40:35.544Z,6.60
2024-01-25T17:43:09.207Z,6.50
2024-01-25T17:45:41.084Z,6.40
2024-01-25T17:48:13.896Z,6.60
2024-01-25T17:50:46.113Z,6.40
2024-01-25T17:53:16.622Z,6.60
2024-01-25T17:55:47.712Z,6.40
2024-01-25T17:58:19.538Z,6.40
2024-01-25T18:00:53.981Z,6.50
2024-01-25T18:03:25.048Z,6.40
2024-01-25T18:05:57.435Z,6.30
2024-01-25T18:08:28.089Z,6.30
2024-01-25T18:11:01.968Z,6.40
2024-01-25T18:13:32.493Z,6.40
2024-01-25T18:16:06.641Z,6.40
2024-01-25T18:18:38.183Z,6.30
2024-01-25T18:21:12.589Z,6.40
2024-01-25T18:23:43.263Z,6.30
2024-01-25T18:26:15.829Z,6.30
2024-01-25T18:28:47.316Z,6.20
2024-01-25T18:31:21.033Z,6.20
2024-01-25T18:33:51.754Z,6.30
2024-01-25T18:36:24.859Z,6.20
2024-01-25T18:38:56.383Z,6.00
2024-01-25T18:41:29.295Z,6.00
2024-01-25T18:44:00.840Z,6.10
2024-01-25T18:46:36.190Z,6.00
2024-01-25T18:49:10.029Z,5.80
2024-01-25T18:51:42.674Z,5.80
2024-01-25T18:54:14.621Z,5.80
2024-01-25T18:56:54.501Z,5.80
2024-01-25T18:59:28.389Z,5.80
2024-01-25T19:02:00.803Z,5.70
2024-01-25T19:04:35.803Z,5.70
2024-01-25T19:07:09.211Z,5.60
2024-01-25T19:09:43.506Z,5.60
2024-01-25T19:12:18.452Z,5.70
2024-01-25T19:14:49.122Z,5.70
2024-01-25T19:17:19.912Z,5.60
2024-01-25T19:19:50.310Z,5.70
2024-01-25T19:22:22.372Z,5.70
2024-01-25T19:24:53.866Z,5.70
2024-01-25T19:27:27.440Z,5.70
2024-01-25T19:29:58.750Z,5.80
2024-01-25T19:32:30.107Z,5.80
2024-01-25T19:35:01.417Z,5.70
2024-01-25T19:37:33.460Z,5.70
2024-01-25T19:40:04.153Z,5.60
2024-01-25T19:42:34.896Z,5.70
2024-01-25T19:45:06.884Z,5.60
2024-01-25T19:47:38.381Z,5.40
2024-01-25T19:50:12.071Z,5.60
2024-01-25T19:52:47.233Z,5.60
2024-01-25T19:55:19.024Z,5.60
2024-01-25T19:57:53.259Z,5.70
2024-01-25T20:00:26.666Z,5.60
2024-01-25T20:02:58.844Z,5.60
2024-01-25T20:05:33.771Z,5.70
2024-01-25T20:08:09.625Z,5.60
2024-01-25T20:10:45.231Z,5.70
2024-01-25T20:13:16.307Z,5.70
2024-01-25T20:15:47.933Z,5.60
2024-01-25T20:18:19.042Z,5.60
2024-01-25T20:20:53.756Z,5.60
2024-01-25T20:23:30.396Z,5.70
2024-01-25T20:26:01.985Z,5.60
2024-01-25T20:28:32.568Z,5.60
2024-01-25T20:31:03.560Z,5.60
2024-01-25T20:33:34.190Z,5.60
2024-01-25T20:36:06.575Z,5.70
2024-01-25T20:38:39.242Z,5.70
2024-01-25T20:41:09.890Z,5.70
2024-01-25T20:43:41.463Z,5.60
2024-01-25T20:46:15.617Z,5.60
2024-01-25T20:48:48.572Z,5.50
2024-01-25T20:51:19.657Z,5.50
2024-01-25T20:53:58.203Z,5.50
2024-01-25T20:56:35.577Z,5.70
2024-01-25T20:59:08.637Z,5.50
2024-01-25T21:01:42.485Z,5.70
2024-01-25T21:04:15.552Z,5.60
2024-01-25T21:06:50.875Z,5.80
2024-01-25T21:09:25.328Z,5.80
2024-01-25T21:11:57.269Z,5.80
2024-01-25T21:14:28.688Z,5.80
2024-01-25T21:16:58.913Z,5.80
2024-01-25T21:19:29.799Z,5.70
2024-01-25T21:22:00.888Z,5.70
2024-01-25T21:24:32.845Z,5.60
2024-01-25T21:27:03.153Z,5.60
2024-01-25T21:29:34.565Z,5.60
2024-01-25T21:32:06.622Z,5.60
2024-01-25T21:34:37.631Z,5.60
2024-01-25T21:37:08.050Z,5.60
2024-01-25T21:39:40.195Z,5.60
2024-01-25T21:42:12.805Z,5.60
2024-01-25T21:44:44.334Z,5.70
2024-01-25T21:47:14.972Z,5.60
2024-01-25T21:49:46.715Z,5.50
2024-01-25T21:52:19.399Z,5.60
2024-01-25T21:54:56.043Z,5.60
2024-01-25T21:57:27.081Z,5.50
2024-01-25T21:59:58.755Z,5.50
2024-01-25T22:02:32.371Z,5.40
2024-01-25T22:05:28.609Z,5.40
2024-01-25T22:07:59.034Z,5.50
2024-01-25T22:10:30.836Z,5.50
2024-01-25T22:13:01.839Z,5.60
2024-01-25T22:15:35.481Z,5.50
2024-01-25T22:18:11.720Z,5.50
2024-01-25T22:20:43.064Z,5.50
2024-01-25T22:23:13.884Z,5.40
2024-01-25T22:25:47.132Z,5.50
2024-01-25T22:28:18.291Z,5.50
2024-01-25T22:30:49.124Z,5.50
2024-01-25T22:33:21.257Z,5.40
2024-01-25T22:35:53.393Z,5.40
2024-01-25T22:38:24.965Z,5.40
2024-01-25T22:40:58.492Z,5.30
2024-01-25T22:43:32.977Z,5.30
2024-01-25T22:46:04.425Z,5.20
2024-01-25T22:48:38.822Z,5.20
2024-01-25T22:51:11.152Z,5.20
2024-01-25T22:53:44.202Z,5.30
2024-01-25T22:56:17.136Z,5.30
2024-01-25T22:58:51.603Z,5.30
2024-01-25T23:01:22.819Z,5.30
2024-01-25T23:03:57.064Z,5.20
2024-01-25T23:06:30.294Z,5.20
2024-01-25T23:09:02.557Z,5.20
2024-01-25T23:11:34.249Z,5.10
2024-01-25T23:14:06.485Z,5.10
2024-01-25T23:16:37.098Z,5.20
2024-01-25T23:19:09.300Z,5.20
2024-01-25T23:21:41.194Z,5.20
2024-01-25T23:24:13.338Z,5.10
2024-01-25T23:26:46.250Z,5.10
2024-01-25T23:29:18.039Z,5.00
2024-01-25T23:31:52.664Z,5.00
2024-01-25T23:34:25.196Z,5.00
2024-01-25T23:36:57.194Z,5.00
2024-01-25T23:39:28.518Z,5.10
2024-01-25T23:42:01.325Z,5.10
2024-01-25T23:44:32.925Z,5.10
2024-01-25T23:47:06.106Z,5.10
2024-01-25T23:49:40.209Z,5.20
2024-01-25T23:52:11.671Z,5.10
2024-01-25T23:54:43.023Z,4.90
2024-01-25T23:57:15.454Z,4.90
2024-01-25T23:59:46.325Z,4.90
